Time,TemperatureF,DewpointF,PressureIn,WindDirection,WindDirectionDegrees,WindSpeedMPH,WindSpeedGustMPH,Humidity,HourlyPrecipIn,Conditions,Clouds,dailyrainin,SoftwareType,DateUTC
2013-02-03 00:00:00,60.7,53.8,30.14,SSW,201,0.0,0.0,78,0.00,,,0.00,Wunderground v.1.15,2013-02-03 05:00:00,
2013-02-03 00:10:00,60.6,53.7,30.14,SSW,202,0.0,0.0,78,0.00,,,0.00,Wunderground v.1.15,2013-02-03 05:10:00,
2013-02-03 00:20:00,60.3,53.4,30.13,SSW,201,0.0,0.0,78,0.00,,,0.00,Wunderground v.1.15,2013-02-03 05:20:00,
2013-02-03 00:30:00,60.3,53.8,30.13,SSW,202,0.0,0.0,79,0.00,,,0.00,Wunderground v.1.15,2013-02-03 05:30:00,
2013-02-03 00:40:00,60.6,54.0,30.13,SSW,202,0.0,0.0,79,0.00,,,0.00,Wunderground v.1.15,2013-02-03 05:40:00,
2013-02-03 00:50:00,60.4,53.5,30.12,SSW,201,0.0,0.0,78,0.00,,,0.00,Wunderground v.1.15,2013-02-03 05:50:00,
2013-02-03 01:00:00,59.9,53.0,30.12,SSW,201,0.0,0.0,78,0.00,,,0.00,Wunderground v.1.15,2013-02-03 06:00:00,
2013-02-03 01:10:00,59.8,53.6,30.12,SSW,212,0.0,0.0,80,0.00,,,0.00,Wunderground v.1.15,2013-02-03 06:10:00,
2013-02-03 01:20:00,59.9,53.4,30.11,SSW,211,0.0,0.0,79,0.00,,,0.00,Wunderground v.1.15,2013-02-03 06:20:00,
2013-02-03 01:30:00,59.2,53.4,30.11,SSW,211,0.0,0.0,81,0.00,,,0.00,Wunderground v.1.15,2013-02-03 06:30:00,
2013-02-03 01:40:00,60.0,54.2,30.11,SSW,211,0.0,0.0,81,0.00,,,0.00,Wunderground v.1.15,2013-02-03 06:40:00,
2013-02-03 01:50:00,59.4,53.2,30.11,WNW,294,0.0,0.0,80,0.00,,,0.00,Wunderground v.1.15,2013-02-03 06:50:00,
2013-02-03 02:00:00,59.0,53.2,30.10,WNW,294,0.0,0.0,81,0.00,,,0.00,Wunderground v.1.15,2013-02-03 07:00:00,
2013-02-03 02:10:00,58.7,53.2,30.10,WNW,293,0.0,0.0,82,0.00,,,0.00,Wunderground v.1.15,2013-02-03 07:10:00,
2013-02-03 02:20:00,58.6,53.5,30.10,WNW,294,0.0,0.0,83,0.00,,,0.00,Wunderground v.1.15,2013-02-03 07:20:00,
2013-02-03 02:30:00,58.0,52.9,30.10,WNW,293,0.0,0.0,83,0.00,,,0.00,Wunderground v.1.15,2013-02-03 07:30:00,
2013-02-03 02:40:00,57.5,53.0,30.09,WNW,293,0.0,0.0,85,0.00,,,0.00,Wunderground v.1.15,2013-02-03 07:40:00,
2013-02-03 02:50:00,57.3,53.1,30.09,WNW,294,0.0,0.0,86,0.00,,,0.00,Wunderground v.1.15,2013-02-03 07:50:00,
2013-02-03 03:00:00,57.0,53.2,30.09,WNW,294,0.0,0.0,87,0.00,,,0.00,Wunderground v.1.15,2013-02-03 08:00:00,
2013-02-03 03:10:00,56.6,53.1,30.09,WNW,294,0.0,0.0,88,0.00,,,0.00,Wunderground v.1.15,2013-02-03 08:10:00,
2013-02-03 03:20:00,57.0,53.5,30.10,NW,319,0.0,0.0,88,0.00,,,0.00,Wunderground v.1.15,2013-02-03 08:20:00,
2013-02-03 03:30:00,57.1,53.6,30.10,NW,319,0.0,0.0,88,0.00,,,0.00,Wunderground v.1.15,2013-02-03 08:30:00,
2013-02-03 03:40:00,57.1,53.6,30.10,NNW,335,0.0,0.0,88,0.00,,,0.00,Wunderground v.1.15,2013-02-03 08:40:00,
2013-02-03 03:50:00,57.1,53.9,30.10,NNW,334,0.0,0.0,89,0.00,,,0.00,Wunderground v.1.15,2013-02-03 08:50:00,
2013-02-03 04:00:00,57.1,53.9,30.10,NNW,334,0.0,0.0,89,0.00,,,0.00,Wunderground v.1.15,2013-02-03 09:00:00,
2013-02-03 04:10:00,56.9,53.7,30.10,NNW,334,0.0,0.0,89,0.00,,,0.00,Wunderground v.1.15,2013-02-03 09:10:00,
2013-02-03 04:20:00,56.9,53.7,30.10,NNW,335,0.0,0.0,89,0.00,,,0.00,Wunderground v.1.15,2013-02-03 09:20:00,
2013-02-03 04:30:00,56.8,53.9,30.10,NNW,335,0.0,0.0,90,0.00,,,0.00,Wunderground v.1.15,2013-02-03 09:30:00,
2013-02-03 04:40:00,57.0,54.1,30.10,NW,309,0.0,0.0,90,0.00,,,0.00,Wunderground v.1.15,2013-02-03 09:40:00,
2013-02-03 04:50:00,56.9,54.0,30.10,WNW,290,0.0,0.0,90,0.00,,,0.00,Wunderground v.1.15,2013-02-03 09:50:00,
2013-02-03 05:00:00,57.4,54.5,30.10,NW,309,1.0,2.0,90,0.00,,,0.00,Wunderground v.1.15,2013-02-03 10:00:00,
2013-02-03 05:10:00,57.8,54.3,30.10,NW,315,2.0,2.0,88,0.00,,,0.00,Wunderground v.1.15,2013-02-03 10:10:00,
2013-02-03 05:20:00,57.9,54.1,30.10,NNW,338,1.0,1.0,87,0.00,,,0.00,Wunderground v.1.15,2013-02-03 10:20:00,
2013-02-03 05:30:00,58.0,53.8,30.11,WNW,302,2.0,3.0,86,0.00,,,0.00,Wunderground v.1.15,2013-02-03 10:30:00,
2013-02-03 05:40:00,58.2,53.7,30.11,NW,318,4.0,5.0,85,0.00,,,0.00,Wunderground v.1.15,2013-02-03 10:40:00,
2013-02-03 05:50:00,57.9,53.7,30.11,NNW,332,4.0,4.0,86,0.00,,,0.00,Wunderground v.1.15,2013-02-03 10:50:00,
2013-02-03 06:00:00,57.7,53.5,30.12,NNW,346,4.0,4.0,86,0.00,,,0.00,Wunderground v.1.15,2013-02-03 11:00:00,
2013-02-03 06:10:00,57.5,53.3,30.12,NNW,348,3.0,3.0,86,0.00,,,0.00,Wunderground v.1.15,2013-02-03 11:10:00,
2013-02-03 06:20:00,57.4,52.9,30.12,WNW,287,3.0,3.0,85,0.00,,,0.00,Wunderground v.1.15,2013-02-03 11:20:00,
2013-02-03 06:30:00,57.2,52.7,30.13,NNW,335,3.0,3.0,85,0.00,,,0.00,Wunderground v.1.15,2013-02-03 11:30:00,
2013-02-03 06:40:00,56.9,52.4,30.14,NNW,340,3.0,5.0,85,0.00,,,0.00,Wunderground v.1.15,2013-02-03 11:40:00,
2013-02-03 06:50:00,56.8,52.3,30.14,NW,323,3.0,3.0,85,0.00,,,0.00,Wunderground v.1.15,2013-02-03 11:50:00,
2013-02-03 07:00:00,56.6,52.1,30.14,NW,310,3.0,3.0,85,0.00,,,0.00,Wunderground v.1.15,2013-02-03 12:00:00,
2013-02-03 07:10:00,56.5,51.7,30.15,NW,326,3.0,3.0,84,0.00,,,0.00,Wunderground v.1.15,2013-02-03 12:10:00,
2013-02-03 07:20:00,56.6,51.8,30.15,NW,314,2.0,2.0,84,0.00,,,0.00,Wunderground v.1.15,2013-02-03 12:20:00,
2013-02-03 07:30:00,56.8,52.0,30.15,WNW,302,3.0,4.0,84,0.00,,,0.00,Wunderground v.1.15,2013-02-03 12:30:00,
2013-02-03 07:40:00,56.9,52.1,30.16,WNW,297,3.0,4.0,84,0.00,,,0.00,Wunderground v.1.15,2013-02-03 12:40:00,
2013-02-03 07:50:00,57.4,52.3,30.16,NNW,334,3.0,3.0,83,0.00,,,0.00,Wunderground v.1.15,2013-02-03 12:50:00,
2013-02-03 08:00:00,57.8,52.3,30.16,WNW,282,4.0,4.0,82,0.00,,,0.00,Wunderground v.1.15,2013-02-03 13:00:00,
2013-02-03 08:10:00,58.4,52.3,30.17,NNW,328,3.0,4.0,80,0.00,,,0.00,Wunderground v.1.15,2013-02-03 13:10:00,
2013-02-03 08:20:00,59.3,52.4,30.17,NNW,338,4.0,4.0,78,0.00,,,0.00,Wunderground v.1.15,2013-02-03 13:20:00,
2013-02-03 08:30:00,60.1,51.4,30.17,NNW,348,4.0,5.0,73,0.00,,,0.00,Wunderground v.1.15,2013-02-03 13:30:00,
2013-02-03 08:40:00,60.9,51.8,30.17,NW,320,4.0,4.0,72,0.00,,,0.00,Wunderground v.1.15,2013-02-03 13:40:00,
2013-02-03 08:50:00,61.6,51.7,30.18,WNW,300,4.0,7.0,70,0.00,,,0.00,Wunderground v.1.15,2013-02-03 13:50:00,
2013-02-03 09:00:00,62.7,50.3,30.18,NW,306,4.0,8.0,64,0.00,,,0.00,Wunderground v.1.15,2013-02-03 14:00:00,
2013-02-03 09:10:00,63.8,50.5,30.18,NW,323,5.0,8.0,62,0.00,,,0.00,Wunderground v.1.15,2013-02-03 14:10:00,
2013-02-03 09:20:00,64.6,50.4,30.18,NNE,23,5.0,5.0,60,0.00,,,0.00,Wunderground v.1.15,2013-02-03 14:20:00,
2013-02-03 09:30:00,65.3,50.1,30.18,NNE,27,6.0,6.0,58,0.00,,,0.00,Wunderground v.1.15,2013-02-03 14:30:00,
2013-02-03 09:40:00,66.1,50.4,30.19,NNW,332,6.0,6.0,57,0.00,,,0.00,Wunderground v.1.15,2013-02-03 14:40:00,
2013-02-03 09:50:00,66.9,50.7,30.19,North,358,5.0,6.0,56,0.00,,,0.00,Wunderground v.1.15,2013-02-03 14:50:00,
2013-02-03 10:00:00,66.9,51.6,30.19,North,1,7.0,10.0,58,0.00,,,0.00,Wunderground v.1.15,2013-02-03 15:00:00,
2013-02-03 10:10:00,67.1,51.8,30.19,NNW,340,7.0,7.0,58,0.00,,,0.00,Wunderground v.1.15,2013-02-03 15:10:00,
2013-02-03 10:20:00,67.7,51.9,30.18,NNW,342,5.0,5.0,57,0.00,,,0.00,Wunderground v.1.15,2013-02-03 15:20:00,
2013-02-03 10:30:00,68.5,52.7,30.18,NNW,338,4.0,4.0,57,0.00,,,0.00,Wunderground v.1.15,2013-02-03 15:30:00,
2013-02-03 10:40:00,68.7,52.8,30.18,NW,316,6.0,6.0,57,0.00,,,0.00,Wunderground v.1.15,2013-02-03 15:40:00,
2013-02-03 10:50:00,69.1,53.7,30.18,WNW,297,5.0,6.0,58,0.00,,,0.00,Wunderground v.1.15,2013-02-03 15:50:00,
2013-02-03 11:00:00,69.7,53.3,30.17,NW,311,5.0,7.0,56,0.00,,,0.00,Wunderground v.1.15,2013-02-03 16:00:00,
2013-02-03 11:10:00,69.4,53.0,30.17,NNW,342,6.0,8.0,56,0.00,,,0.00,Wunderground v.1.15,2013-02-03 16:10:00,
2013-02-03 11:20:00,69.7,53.3,30.17,NW,309,6.0,6.0,56,0.00,,,0.00,Wunderground v.1.15,2013-02-03 16:20:00,
2013-02-03 11:30:00,70.1,53.7,30.16,WNW,283,5.0,5.0,56,0.00,,,0.00,Wunderground v.1.15,2013-02-03 16:30:00,
2013-02-03 11:40:00,70.4,53.5,30.16,NW,306,6.0,6.0,55,0.00,,,0.00,Wunderground v.1.15,2013-02-03 16:40:00,
2013-02-03 11:50:00,70.7,52.7,30.15,NNW,333,5.0,7.0,53,0.00,,,0.00,Wunderground v.1.15,2013-02-03 16:50:00,
2013-02-03 12:00:00,71.1,51.5,30.15,WNW,292,6.0,8.0,50,0.00,,,0.00,Wunderground v.1.15,2013-02-03 17:00:00,
2013-02-03 12:10:00,71.1,51.5,30.15,North,5,7.0,8.0,50,0.00,,,0.00,Wunderground v.1.15,2013-02-03 17:10:00,
2013-02-03 12:20:00,71.3,49.4,30.14,NNW,343,6.0,11.0,46,0.00,,,0.00,Wunderground v.1.15,2013-02-03 17:20:00,
2013-02-03 12:30:00,71.3,49.4,30.14,NW,326,7.0,7.0,46,0.00,,,0.00,Wunderground v.1.15,2013-02-03 17:30:00,
2013-02-03 12:40:00,72.1,49.0,30.13,NNW,332,5.0,5.0,44,0.00,,,0.00,Wunderground v.1.15,2013-02-03 17:40:00,
2013-02-03 12:50:00,72.2,49.1,30.13,North,11,6.0,9.0,44,0.00,,,0.00,Wunderground v.1.15,2013-02-03 17:50:00,
2013-02-03 13:00:00,72.0,49.5,30.12,NW,326,5.0,8.0,45,0.00,,,0.00,Wunderground v.1.15,2013-02-03 18:00:00,
2013-02-03 13:10:00,72.0,49.5,30.11,NE,41,6.0,7.0,45,0.00,,,0.00,Wunderground v.1.15,2013-02-03 18:10:00,
2013-02-03 13:20:00,72.2,47.2,30.11,NNE,25,6.0,6.0,41,0.00,,,0.00,Wunderground v.1.15,2013-02-03 18:20:00,
2013-02-03 13:30:00,72.4,49.3,30.10,NNW,340,5.0,5.0,44,0.00,,,0.00,Wunderground v.1.15,2013-02-03 18:30:00,
2013-02-03 13:40:00,72.3,54.2,30.10,NE,43,5.0,5.0,53,0.00,,,0.00,Wunderground v.1.15,2013-02-03 18:40:00,
2013-02-03 13:50:00,72.2,49.1,30.10,ENE,61,6.0,6.0,44,0.00,,,0.00,Wunderground v.1.15,2013-02-03 18:50:00,
2013-02-03 14:00:00,72.4,48.0,30.10,NNW,342,6.0,6.0,42,0.00,,,0.00,Wunderground v.1.15,2013-02-03 19:00:00,
2013-02-03 14:10:00,72.2,47.8,30.09,ENE,71,5.0,5.0,42,0.00,,,0.00,Wunderground v.1.15,2013-02-03 19:10:00,
2013-02-03 14:20:00,72.3,43.8,30.09,NW,326,7.0,7.0,36,0.00,,,0.00,Wunderground v.1.15,2013-02-03 19:20:00,
2013-02-03 14:30:00,72.3,45.3,30.09,NW,318,6.0,7.0,38,0.00,,,0.00,Wunderground v.1.15,2013-02-03 19:30:00,
2013-02-03 14:40:00,72.3,43.1,30.09,NE,48,6.0,6.0,35,0.00,,,0.00,Wunderground v.1.15,2013-02-03 19:40:00,
2013-02-03 14:50:00,72.5,48.1,30.09,ENE,61,4.0,7.0,42,0.00,,,0.00,Wunderground v.1.15,2013-02-03 19:50:00,
2013-02-03 15:00:00,71.4,49.5,30.09,ENE,74,7.0,7.0,46,0.00,,,0.00,Wunderground v.1.15,2013-02-03 20:00:00,
2013-02-03 15:10:00,71.1,49.3,30.08,NE,47,8.0,8.0,46,0.00,,,0.00,Wunderground v.1.15,2013-02-03 20:10:00,
2013-02-03 15:20:00,70.7,48.3,30.09,NE,51,8.0,8.0,45,0.00,,,0.00,Wunderground v.1.15,2013-02-03 20:20:00,
2013-02-03 15:30:00,70.6,49.4,30.09,ENE,57,9.0,9.0,47,0.00,,,0.00,Wunderground v.1.15,2013-02-03 20:30:00,
2013-02-03 15:40:00,70.3,49.1,30.09,ENE,68,8.0,8.0,47,0.00,,,0.00,Wunderground v.1.15,2013-02-03 20:40:00,
2013-02-03 15:50:00,69.9,48.7,30.09,NE,51,10.0,10.0,47,0.00,,,0.00,Wunderground v.1.15,2013-02-03 20:50:00,
2013-02-03 16:00:00,69.7,48.0,30.09,ENE,65,8.0,10.0,46,0.00,,,0.00,Wunderground v.1.15,2013-02-03 21:00:00,
2013-02-03 16:10:00,69.6,48.5,30.09,NE,40,7.0,8.0,47,0.00,,,0.00,Wunderground v.1.15,2013-02-03 21:10:00,
2013-02-03 16:20:00,69.4,47.1,30.09,North,6,8.0,8.0,45,0.00,,,0.00,Wunderground v.1.15,2013-02-03 21:20:00,
2013-02-03 16:30:00,69.4,47.7,30.09,ENE,65,7.0,7.0,46,0.00,,,0.00,Wunderground v.1.15,2013-02-03 21:30:00,
2013-02-03 16:40:00,69.0,46.8,30.09,NE,48,8.0,8.0,45,0.00,,,0.00,Wunderground v.1.15,2013-02-03 21:40:00,
2013-02-03 16:50:00,69.1,46.9,30.09,NE,54,6.0,12.0,45,0.00,,,0.00,Wunderground v.1.15,2013-02-03 21:50:00,
2013-02-03 17:00:00,68.7,44.7,30.10,NE,45,7.0,7.0,42,0.00,,,0.00,Wunderground v.1.15,2013-02-03 22:00:00,
2013-02-03 17:10:00,68.6,45.8,30.10,NE,44,6.0,8.0,44,0.00,,,0.00,Wunderground v.1.15,2013-02-03 22:10:00,
2013-02-03 17:20:00,68.4,45.0,30.10,NNE,12,6.0,6.0,43,0.00,,,0.00,Wunderground v.1.15,2013-02-03 22:20:00,
2013-02-03 17:30:00,68.5,43.9,30.10,NNE,27,6.0,6.0,41,0.00,,,0.00,Wunderground v.1.15,2013-02-03 22:30:00,
2013-02-03 17:40:00,68.4,43.8,30.10,ESE,122,4.0,4.0,41,0.00,,,0.00,Wunderground v.1.15,2013-02-03 22:40:00,
2013-02-03 17:50:00,68.1,43.5,30.10,NE,45,4.0,4.0,41,0.00,,,0.00,Wunderground v.1.15,2013-02-03 22:50:00,
2013-02-03 18:00:00,67.7,43.1,30.10,NE,53,5.0,5.0,41,0.00,,,0.00,Wunderground v.1.15,2013-02-03 23:00:00,
2013-02-03 18:10:00,67.2,42.7,30.10,ENE,62,4.0,4.0,41,0.00,,,0.00,Wunderground v.1.15,2013-02-03 23:10:00,
2013-02-03 18:20:00,66.7,42.9,30.10,North,11,2.0,2.0,42,0.00,,,0.00,Wunderground v.1.15,2013-02-03 23:20:00,
2013-02-03 18:30:00,66.2,43.0,30.10,NNE,32,2.0,2.0,43,0.00,,,0.00,Wunderground v.1.15,2013-02-03 23:30:00,
2013-02-03 18:40:00,65.6,43.1,30.10,NNE,19,0.0,0.0,44,0.00,,,0.00,Wunderground v.1.15,2013-02-03 23:40:00,
2013-02-03 18:50:00,64.6,42.8,30.10,NNE,18,0.0,0.0,45,0.00,,,0.00,Wunderground v.1.15,2013-02-03 23:50:00,
2013-02-03 19:00:00,64.0,42.8,30.10,NNE,16,0.0,0.0,46,0.00,,,0.00,Wunderground v.1.15,2013-02-04 00:00:00,
2013-02-03 19:10:00,63.6,43.0,30.10,North,8,0.0,0.0,47,0.00,,,0.00,Wunderground v.1.15,2013-02-04 00:10:00,
2013-02-03 19:20:00,62.8,43.3,30.10,North,7,0.0,0.0,49,0.00,,,0.00,Wunderground v.1.15,2013-02-04 00:20:00,
2013-02-03 19:30:00,62.5,43.6,30.10,NNW,334,0.0,1.0,50,0.00,,,0.00,Wunderground v.1.15,2013-02-04 00:30:00,
2013-02-03 19:40:00,62.4,43.5,30.10,North,349,1.0,2.0,50,0.00,,,0.00,Wunderground v.1.15,2013-02-04 00:40:00,
2013-02-03 19:50:00,62.1,43.7,30.11,NNW,335,1.0,1.0,51,0.00,,,0.00,Wunderground v.1.15,2013-02-04 00:50:00,
2013-02-03 20:00:00,61.4,44.6,30.11,West,276,1.0,2.0,54,0.00,,,0.00,Wunderground v.1.15,2013-02-04 01:00:00,
2013-02-03 20:10:00,60.3,45.0,30.11,WNW,295,1.0,1.0,57,0.00,,,0.00,Wunderground v.1.15,2013-02-04 01:10:00,
2013-02-03 20:20:00,60.0,45.2,30.12,WNW,295,1.0,2.0,58,0.00,,,0.00,Wunderground v.1.15,2013-02-04 01:20:00,
2013-02-03 20:30:00,59.9,45.1,30.12,WNW,286,1.0,1.0,58,0.00,,,0.00,Wunderground v.1.15,2013-02-04 01:30:00,
2013-02-03 20:40:00,59.6,45.2,30.12,WNW,285,1.0,1.0,59,0.00,,,0.00,Wunderground v.1.15,2013-02-04 01:40:00,
2013-02-03 20:50:00,59.7,45.3,30.13,WNW,288,2.0,2.0,59,0.00,,,0.00,Wunderground v.1.15,2013-02-04 01:50:00,
2013-02-03 21:00:00,59.5,45.6,30.13,NW,307,1.0,1.0,60,0.00,,,0.00,Wunderground v.1.15,2013-02-04 02:00:00,
2013-02-03 21:10:00,59.2,45.3,30.13,NW,307,1.0,1.0,60,0.00,,,0.00,Wunderground v.1.15,2013-02-04 02:10:00,
2013-02-03 21:20:00,59.0,45.1,30.13,WNW,302,1.0,1.0,60,0.00,,,0.00,Wunderground v.1.15,2013-02-04 02:20:00,
2013-02-03 21:30:00,58.8,45.4,30.13,WNW,291,1.0,1.0,61,0.00,,,0.00,Wunderground v.1.15,2013-02-04 02:30:00,
2013-02-03 21:40:00,59.1,45.2,30.13,WNW,300,2.0,2.0,60,0.00,,,0.00,Wunderground v.1.15,2013-02-04 02:40:00,
2013-02-03 21:50:00,59.0,45.1,30.13,NW,309,2.0,2.0,60,0.00,,,0.00,Wunderground v.1.15,2013-02-04 02:50:00,
2013-02-03 22:00:00,59.0,45.1,30.13,NW,309,1.0,1.0,60,0.00,,,0.00,Wunderground v.1.15,2013-02-04 03:00:00,
2013-02-03 22:10:00,58.5,45.1,30.13,NW,307,1.0,1.0,61,0.00,,,0.00,Wunderground v.1.15,2013-02-04 03:10:00,
2013-02-03 22:20:00,57.9,45.4,30.13,NW,308,0.0,0.0,63,0.00,,,0.00,Wunderground v.1.15,2013-02-04 03:20:00,
2013-02-03 22:30:00,57.4,45.3,30.13,NW,316,1.0,2.0,64,0.00,,,0.00,Wunderground v.1.15,2013-02-04 03:30:00,
2013-02-03 22:40:00,57.8,45.3,30.13,WNW,296,1.0,1.0,63,0.00,,,0.00,Wunderground v.1.15,2013-02-04 03:40:00,
2013-02-03 22:50:00,57.9,45.8,30.13,West,271,0.0,0.0,64,0.00,,,0.00,Wunderground v.1.15,2013-02-04 03:50:00,
2013-02-03 23:00:00,57.8,45.3,30.13,NNW,328,2.0,2.0,63,0.00,,,0.00,Wunderground v.1.15,2013-02-04 04:00:00,
2013-02-03 23:10:00,57.1,45.0,30.13,NW,326,1.0,1.0,64,0.00,,,0.00,Wunderground v.1.15,2013-02-04 04:10:00,
2013-02-03 23:20:00,56.2,45.4,30.13,SSE,166,1.0,2.0,67,0.00,,,0.00,Wunderground v.1.15,2013-02-04 04:20:00,
2013-02-03 23:30:00,55.9,45.5,30.12,SSE,160,1.0,1.0,68,0.00,,,0.00,Wunderground v.1.15,2013-02-04 04:30:00,
2013-02-03 23:40:00,55.4,44.6,30.12,SSE,160,0.0,0.0,67,0.00,,,0.00,Wunderground v.1.15,2013-02-04 04:40:00,
2013-02-03 23:50:00,55.4,45.4,30.12,SSE,160,0.0,0.0,69,0.00,,,0.00,Wunderground v.1.15,2013-02-04 04:50:00,